Sturgis, MI

7:17 PM EST on January 19, 2018 (GMT -0500)
Kirsch Municipal

Weather History for KIRS - May, 2013

Change the Weather History Date:

Monday, May 27, 2013

  Actual Average (KHAI) Record (KHAI)
Temperature  
Mean Temperature 55 °F -  
Max Temperature 60 °F 73 °F 92 °F (2012)
Min Temperature 50 °F 49 °F 28 °F (1961)
Degree Days  
Heating Degree Days 10    
Growing Degree Days 5 (Base 50)    
Moisture  
Dew Point 46 °F    
Average Humidity 77    
Maximum Humidity 100    
Minimum Humidity 31    
Precipitation  
Precipitation 0.00 in - - ()
Sea Level Pressure  
Sea Level Pressure 30.09 in    
Wind  
Wind Speed 10 mph (ESE)    
Max Wind Speed 18 mph    
Max Gust Speed 28 mph    
Visibility 8 miles    
Events Rain    
Averages and records for this station are not official NWS values.
T = Trace of Precipitation, MM = Missing Value Source: NWS Daily Summary

Daily Weather History Graph

Daily Weather History Graph

Search for Another Location

Airport or City:

Trip Planner

Search our weather history database for the weather conditions in past years. The results will help you decide how hot, cold, wet, or windy it might be!

Date:

Astronomy

May. 27, 2013 Rise Set
Actual Time 6:11 AM EDT 9:06 PM EDT
Civil Twilight 5:38 AM EDT 9:39 PM EDT
Nautical Twilight 4:57 AM EDT 10:21 PM EDT
Astronomical Twilight 4:08 AM EDT 11:10 PM EDT
Moon 11:44 PM EDT (5/27) 8:49 AM EDT (5/27)
Length of Visible Light 16h 00m
Length of Day
14h 54m
Waning Gibbous, 91% of the Moon is Illuminated
May 27
Waning Gibbous
May 31
Last Quarter
Jun 8
New
Jun 16
First Quarter
Jun 23
Full

Hourly Weather History & Observations

Time (EDT) Temp. Dew Point Humidity Pressure Visibility Wind Dir Wind Speed Gust Speed Precip Events Conditions
12:14 AM 60.8 °F 32.0 °F 34% 30.21 in 10.0 mi ESE 9.2 mph - N/A   Clear
12:35 AM 60.8 °F 32.0 °F 34% 30.21 in 10.0 mi SE 9.2 mph - N/A   Clear
12:55 AM 60.8 °F 32.0 °F 34% 30.20 in 10.0 mi SE 9.2 mph - N/A   Mostly Cloudy
1:14 AM 60.8 °F 32.0 °F 34% 30.20 in 10.0 mi SE 6.9 mph - N/A   Overcast
1:35 AM 60.8 °F 32.0 °F 34% 30.20 in 10.0 mi SE 6.9 mph - N/A   Mostly Cloudy
1:55 AM 60.8 °F 32.0 °F 34% 30.19 in 10.0 mi SE 8.1 mph - N/A   Mostly Cloudy
2:14 AM 60.8 °F 32.0 °F 34% 30.19 in 10.0 mi SE 9.2 mph - N/A   Overcast
2:35 AM 60.8 °F 30.2 °F 31% 30.19 in 10.0 mi SE 10.4 mph - N/A   Overcast
2:54 AM 60.8 °F 30.2 °F 31% 30.18 in 10.0 mi SE 8.1 mph - N/A   Overcast
3:15 AM 59.0 °F 32.0 °F 36% 30.18 in 10.0 mi SE 9.2 mph - N/A   Overcast
3:35 AM 59.0 °F 32.0 °F 36% 30.18 in 10.0 mi SE 9.2 mph - N/A   Overcast
3:54 AM 59.0 °F 32.0 °F 36% 30.18 in 10.0 mi SE 8.1 mph - N/A   Overcast
4:15 AM 59.0 °F 30.2 °F 34% 30.17 in 10.0 mi SE 8.1 mph - N/A   Overcast
4:35 AM 59.0 °F 30.2 °F 34% 30.17 in 10.0 mi SE 9.2 mph - N/A   Overcast
4:54 AM 59.0 °F 32.0 °F 36% 30.18 in 10.0 mi SSE 8.1 mph - N/A   Overcast
5:15 AM 57.2 °F 33.8 °F 41% 30.17 in 10.0 mi SE 9.2 mph - N/A Rain Light Rain
5:35 AM 57.2 °F 33.8 °F 41% 30.17 in 10.0 mi SE 8.1 mph - N/A   Overcast
5:54 AM 57.2 °F 33.8 °F 41% 30.17 in 10.0 mi SSE 8.1 mph - N/A   Overcast
6:15 AM 55.4 °F 35.6 °F 47% 30.16 in 10.0 mi SE 6.9 mph - N/A Rain Light Rain
6:35 AM 55.4 °F 35.6 °F 47% 30.17 in 10.0 mi SSE 6.9 mph - N/A   Overcast
6:54 AM 55.4 °F 42.8 °F 63% 30.18 in 10.0 mi South 8.1 mph - N/A   Overcast
7:15 AM 53.6 °F 44.6 °F 72% 30.19 in 10.0 mi SSE 6.9 mph 19.6 mph N/A   Drizzle
7:35 AM 51.8 °F 46.4 °F 82% 30.20 in 10.0 mi SSE 8.1 mph - N/A Rain Light Rain
7:54 AM 51.8 °F 46.4 °F 82% 30.19 in 10.0 mi SSE 10.4 mph - N/A Rain Light Rain
8:15 AM 50.0 °F 46.4 °F 87% 30.17 in 10.0 mi SE 9.2 mph - N/A Rain Rain
8:35 AM 50.0 °F 48.2 °F 94% 30.17 in 7.0 mi SE 10.4 mph 16.1 mph N/A Rain Light Rain
8:54 AM 51.8 °F 48.2 °F 88% 30.18 in 10.0 mi SE 9.2 mph - N/A Rain Light Rain
9:15 AM 51.8 °F 48.2 °F 88% 30.17 in 10.0 mi ESE 9.2 mph - N/A   Drizzle
9:35 AM 51.8 °F 50.0 °F 94% 30.16 in 10.0 mi SE 9.2 mph - N/A Rain Light Rain
9:55 AM 51.8 °F 50.0 °F 94% 30.16 in 7.0 mi SE 12.7 mph 16.1 mph N/A Rain Light Rain
10:15 AM 51.8 °F 50.0 °F 94% 30.15 in 10.0 mi SE 11.5 mph 18.4 mph N/A Rain Light Rain
10:34 AM 51.8 °F 50.0 °F 94% 30.15 in 10.0 mi SE 10.4 mph - N/A Rain Light Rain
10:55 AM 51.8 °F 50.0 °F 94% 30.14 in 7.0 mi SE 13.8 mph 17.3 mph N/A Rain Rain
11:14 AM 51.8 °F 50.0 °F 94% 30.13 in 10.0 mi SE 11.5 mph 17.3 mph N/A Rain Light Rain
11:35 AM 51.8 °F 50.0 °F 94% 30.12 in 2.5 mi SE 18.4 mph 23.0 mph N/A Rain Light Rain
11:55 AM 51.8 °F 50.0 °F 94% 30.12 in 4.0 mi SE 16.1 mph 20.7 mph N/A Rain Light Rain
12:14 PM 51.8 °F 50.0 °F 94% 30.11 in 4.0 mi ESE 17.3 mph 24.2 mph N/A Rain Light Rain
12:35 PM 53.6 °F 50.0 °F 88% 30.10 in 10.0 mi ESE 12.7 mph 27.6 mph N/A   Mostly Cloudy
12:55 PM 53.6 °F 50.0 °F 88% 30.11 in 10.0 mi SE 12.7 mph 19.6 mph N/A   Overcast
1:14 PM 53.6 °F 51.8 °F 94% 30.10 in 4.0 mi ESE 12.7 mph 18.4 mph N/A Rain Light Rain
1:35 PM 53.6 °F 51.8 °F 94% 30.09 in 10.0 mi ESE 15.0 mph 18.4 mph N/A   Scattered Clouds
1:55 PM 53.6 °F 51.8 °F 94% 30.09 in 10.0 mi ESE 12.7 mph - N/A   Scattered Clouds
2:14 PM 53.6 °F 51.8 °F 94% 30.07 in 10.0 mi ESE 16.1 mph 20.7 mph N/A   Scattered Clouds
2:35 PM 53.6 °F 51.8 °F 94% 30.07 in 7.0 mi ESE 10.4 mph 21.9 mph N/A Rain Light Rain
2:54 PM 53.6 °F 51.8 °F 94% 30.06 in 7.0 mi ESE 12.7 mph 18.4 mph N/A Rain Light Rain
3:15 PM 53.6 °F 51.8 °F 94% 30.06 in 10.0 mi ESE 12.7 mph - N/A   Mostly Cloudy
3:35 PM 53.6 °F 51.8 °F 94% 30.06 in 10.0 mi ESE 11.5 mph 16.1 mph N/A   Overcast
3:54 PM 53.6 °F 51.8 °F 94% 30.05 in 10.0 mi ESE 11.5 mph 18.4 mph N/A   Overcast
4:15 PM 53.6 °F 51.8 °F 94% 30.04 in 10.0 mi ESE 11.5 mph 17.3 mph N/A   Overcast
4:35 PM 53.6 °F 51.8 °F 94% 30.03 in 10.0 mi ESE 12.7 mph - N/A   Overcast
4:54 PM 53.6 °F 51.8 °F 94% 30.02 in 3.0 mi East 10.4 mph - N/A Rain Rain
5:15 PM 53.6 °F 51.8 °F 94% 30.00 in 3.0 mi East 12.7 mph - N/A Rain Light Rain
5:35 PM 53.6 °F 51.8 °F 94% 30.00 in 3.0 mi East 10.4 mph 18.4 mph N/A Rain Rain
5:54 PM 51.8 °F 51.8 °F 100% 30.00 in 2.5 mi East 9.2 mph 16.1 mph N/A Rain Heavy Rain
6:15 PM 53.6 °F 51.8 °F 94% 29.99 in 2.5 mi East 9.2 mph - N/A   Heavy Drizzle
6:34 PM 53.6 °F 51.8 °F 94% 29.99 in 3.0 mi East 9.2 mph - N/A Rain Rain
6:55 PM 53.6 °F 51.8 °F 94% 29.98 in 4.0 mi East 8.1 mph - N/A   Drizzle
7:15 PM 53.6 °F 51.8 °F 94% 29.98 in 2.5 mi East 9.2 mph - N/A   Drizzle
7:34 PM 53.6 °F 51.8 °F 94% 29.97 in 3.0 mi East 8.1 mph - N/A   Light Drizzle
7:55 PM 53.6 °F 51.8 °F 94% 29.97 in 4.0 mi East 5.8 mph - N/A   Overcast
8:14 PM 53.6 °F 51.8 °F 94% 29.96 in 5.0 mi East 8.1 mph - N/A   Overcast
8:35 PM 53.6 °F 51.8 °F 94% 29.96 in 7.0 mi East 8.1 mph - N/A   Overcast
8:55 PM 53.6 °F 51.8 °F 94% 29.95 in 7.0 mi ESE 8.1 mph - N/A   Mostly Cloudy
9:14 PM 53.6 °F 51.8 °F 94% 29.95 in 7.0 mi ESE 8.1 mph - N/A   Mostly Cloudy
9:35 PM 53.6 °F 51.8 °F 94% 29.95 in 10.0 mi ESE 10.4 mph - N/A   Mostly Cloudy
9:55 PM 53.6 °F 51.8 °F 94% 29.95 in 10.0 mi SE 6.9 mph - N/A   Overcast
10:14 PM 53.6 °F 51.8 °F 94% 29.94 in 10.0 mi ESE 8.1 mph - N/A   Mostly Cloudy
10:35 PM 53.6 °F 53.6 °F 100% 29.94 in 7.0 mi ESE 5.8 mph - N/A Rain Light Rain
10:55 PM 53.6 °F 53.6 °F 100% 29.94 in 7.0 mi East 8.1 mph - N/A Rain Light Rain
11:14 PM 53.6 °F 53.6 °F 100% 29.94 in 7.0 mi ESE 6.9 mph - N/A   Drizzle
11:35 PM 53.6 °F 53.6 °F 100% 29.94 in 7.0 mi East 4.6 mph - N/A   Overcast
11:55 PM 53.6 °F 53.6 °F 100% 29.94 in 5.0 mi ESE 6.9 mph - N/A   Light Drizzle